createdAt,value
2022-08-05T00:00:51.702Z,23.47
2022-08-05T00:01:53.455Z,23.47
2022-08-05T00:02:55.144Z,23.42
2022-08-05T00:03:57.551Z,23.40
2022-08-05T00:04:59.318Z,23.34
2022-08-05T00:06:06.562Z,23.33
2022-08-05T00:07:58.884Z,23.29
2022-08-05T00:08:44.436Z,23.30
2022-08-05T00:09:49.166Z,23.24
2022-08-05T00:10:50.767Z,23.22
2022-08-05T00:11:56.208Z,23.18
2022-08-05T00:13:01.565Z,23.19
2022-08-05T00:14:13.030Z,23.16
2022-08-05T00:15:55.905Z,23.13
2022-08-05T00:16:52.984Z,23.13
2022-08-05T00:17:55.577Z,23.15
2022-08-05T00:18:57.306Z,23.10
2022-08-05T00:20:02.383Z,23.08
2022-08-05T00:21:06.505Z,23.05
2022-08-05T00:22:11.069Z,23.06
2022-08-05T00:23:13.379Z,23.03
2022-08-05T00:24:16.175Z,23.00
2022-08-05T00:25:21.072Z,22.98
2022-08-05T00:26:22.725Z,22.96
2022-08-05T00:27:36.326Z,23.00
2022-08-05T00:28:38.506Z,22.96
2022-08-05T00:29:41.501Z,22.95
2022-08-05T00:30:44.194Z,22.95
2022-08-05T00:32:10.483Z,22.89
2022-08-05T00:33:07.756Z,22.92
2022-08-05T00:34:55.990Z,22.91
2022-08-05T00:36:16.040Z,22.86
2022-08-05T00:37:14.306Z,22.84
2022-08-05T00:38:16.075Z,22.85
2022-08-05T00:39:41.380Z,22.84
2022-08-05T00:40:51.976Z,22.86
2022-08-05T00:41:55.869Z,22.84
2022-08-05T00:42:58.438Z,22.81
2022-08-05T00:44:00.273Z,22.81
2022-08-05T00:45:02.494Z,22.79
2022-08-05T00:46:04.105Z,22.79
2022-08-05T00:47:06.497Z,22.73
2022-08-05T00:48:15.922Z,22.72
2022-08-05T00:49:20.197Z,22.73
2022-08-05T00:50:21.885Z,22.72
2022-08-05T00:51:52.007Z,22.72
2022-08-05T00:52:49.171Z,22.69
2022-08-05T00:54:02.781Z,22.67
2022-08-05T00:55:05.230Z,22.67
2022-08-05T00:56:07.889Z,22.64
2022-08-05T00:57:09.771Z,22.65
2022-08-05T00:58:12.274Z,22.65
2022-08-05T00:59:14.916Z,22.62
2022-08-05T01:00:17.099Z,22.62
2022-08-05T01:01:24.990Z,22.64
2022-08-05T01:02:43.203Z,22.61
2022-08-05T01:03:45.152Z,22.59
2022-08-05T01:04:51.717Z,22.61
2022-08-05T01:05:54.670Z,22.58
2022-08-05T01:06:56.535Z,22.55
2022-08-05T01:08:40.996Z,22.59
2022-08-05T01:09:20.478Z,22.58
2022-08-05T01:10:25.796Z,22.61
2022-08-05T01:11:36.753Z,22.57
2022-08-05T01:12:38.769Z,22.58
2022-08-05T01:14:15.520Z,22.58
2022-08-05T01:15:18.169Z,22.58
2022-08-05T01:16:38.135Z,22.58
2022-08-05T01:17:44.781Z,22.55
2022-08-05T01:19:00.815Z,22.54
2022-08-05T01:20:32.117Z,22.54
2022-08-05T01:22:15.337Z,22.55
2022-08-05T01:23:56.018Z,22.55
2022-08-05T01:25:39.695Z,22.49
2022-08-05T01:26:54.931Z,22.44
2022-08-05T01:28:15.032Z,22.44
2022-08-05T01:29:45.676Z,22.41
2022-08-05T01:31:13.423Z,22.43
2022-08-05T01:32:18.607Z,22.43
2022-08-05T01:33:25.374Z,22.45
2022-08-05T01:34:42.924Z,22.38
2022-08-05T01:35:51.060Z,22.34
2022-08-05T01:37:10.793Z,22.35
2022-08-05T01:38:29.177Z,22.33
2022-08-05T01:39:45.542Z,22.30
2022-08-05T01:40:48.673Z,22.28
2022-08-05T01:41:51.281Z,22.28
2022-08-05T01:42:55.132Z,22.24
2022-08-05T01:43:56.825Z,22.27
2022-08-05T01:45:02.283Z,22.21
2022-08-05T01:46:07.380Z,22.22
2022-08-05T01:47:19.550Z,22.18
2022-08-05T01:48:21.417Z,22.21
2022-08-05T01:49:24.936Z,22.17
2022-08-05T01:50:29.661Z,22.18
2022-08-05T01:51:32.077Z,22.16
2022-08-05T01:52:34.693Z,22.17
2022-08-05T01:53:56.988Z,22.16
2022-08-05T01:55:00.520Z,22.14
2022-08-05T01:56:04.440Z,22.10
2022-08-05T01:58:10.037Z,22.07
2022-08-05T01:58:40.978Z,22.04
2022-08-05T01:59:47.387Z,22.07
2022-08-05T02:00:52.115Z,22.08
2022-08-05T02:01:54.794Z,22.10
2022-08-05T02:03:31.869Z,22.06
2022-08-05T02:04:34.961Z,22.06
2022-08-05T02:05:38.020Z,22.04
2022-08-05T02:06:45.010Z,22.06
2022-08-05T02:07:47.372Z,22.01
2022-08-05T02:09:03.134Z,21.98
2022-08-05T02:10:05.306Z,21.96
2022-08-05T02:11:12.007Z,21.93
2022-08-05T02:12:40.072Z,21.93
2022-08-05T02:13:53.666Z,21.92
2022-08-05T02:15:04.343Z,21.90
2022-08-05T02:16:16.585Z,21.84
2022-08-05T02:18:15.178Z,21.84
2022-08-05T02:18:58.375Z,21.84
2022-08-05T02:20:01.436Z,21.87
2022-08-05T02:21:15.296Z,21.82
2022-08-05T02:22:26.757Z,21.76
2022-08-05T02:23:33.810Z,21.76
2022-08-05T02:24:38.383Z,21.83
2022-08-05T02:25:50.286Z,21.82
2022-08-05T02:27:18.748Z,21.76
2022-08-05T02:28:28.864Z,21.69
2022-08-05T02:30:00.016Z,21.74
2022-08-05T02:30:59.193Z,21.72
2022-08-05T02:32:00.894Z,21.73
2022-08-05T02:33:06.706Z,21.72
2022-08-05T02:34:11.921Z,21.72
2022-08-05T02:35:19.130Z,21.73
2022-08-05T02:36:31.135Z,21.73
2022-08-05T02:37:33.458Z,21.72
2022-08-05T02:38:35.914Z,21.74
2022-08-05T02:39:41.346Z,21.73
2022-08-05T02:40:49.409Z,21.72
2022-08-05T02:42:00.680Z,21.74
2022-08-05T02:43:03.067Z,21.77
2022-08-05T02:44:13.393Z,21.74
2022-08-05T02:45:15.661Z,21.73
2022-08-05T02:46:18.091Z,21.77
2022-08-05T02:47:58.722Z,21.77
2022-08-05T02:48:51.673Z,21.79
2022-08-05T02:49:53.729Z,21.77
2022-08-05T02:50:56.154Z,21.73
2022-08-05T02:52:03.576Z,21.70
2022-08-05T02:53:05.832Z,21.67
2022-08-05T02:54:35.828Z,21.72
2022-08-05T02:55:54.486Z,21.65
2022-08-05T02:56:57.022Z,21.53
2022-08-05T02:58:11.667Z,21.59
2022-08-05T02:59:14.866Z,21.57
2022-08-05T03:00:16.746Z,21.60
2022-08-05T03:01:20.389Z,21.55
2022-08-05T03:02:27.571Z,21.50
2022-08-05T03:03:33.736Z,21.53
2022-08-05T03:04:36.036Z,21.53
2022-08-05T03:06:56.807Z,21.55
2022-08-05T03:07:00.433Z,21.49
2022-08-05T03:08:08.572Z,21.50
2022-08-05T03:09:15.787Z,21.41
2022-08-05T03:10:21.739Z,21.47
2022-08-05T03:11:57.301Z,21.47
2022-08-05T03:12:51.731Z,21.45
2022-08-05T03:14:02.675Z,21.45
2022-08-05T03:15:06.874Z,21.39
2022-08-05T03:16:09.109Z,21.39
2022-08-05T03:17:10.875Z,21.45
2022-08-05T03:18:12.499Z,21.36
2022-08-05T03:19:33.544Z,21.39
2022-08-05T03:20:38.490Z,21.38
2022-08-05T03:21:48.628Z,21.39
2022-08-05T03:22:51.615Z,21.41
2022-08-05T03:23:53.483Z,21.43
2022-08-05T03:24:55.828Z,21.36
2022-08-05T03:26:31.918Z,21.38
2022-08-05T03:27:39.166Z,21.33
2022-08-05T03:28:41.042Z,21.42
2022-08-05T03:29:45.796Z,21.32
2022-08-05T03:31:04.479Z,21.33
2022-08-05T03:32:10.092Z,21.35
2022-08-05T03:33:12.627Z,21.35
2022-08-05T03:34:14.291Z,21.32
2022-08-05T03:35:15.929Z,21.35
2022-08-05T03:36:17.546Z,21.38
2022-08-05T03:37:45.693Z,21.35
2022-08-05T03:38:52.480Z,21.39
2022-08-05T03:40:01.209Z,21.38
2022-08-05T03:41:08.139Z,21.41
2022-08-05T03:42:12.277Z,21.41
2022-08-05T03:43:16.008Z,21.45
2022-08-05T03:44:35.741Z,21.45
2022-08-05T03:45:58.137Z,21.45
2022-08-05T03:46:59.023Z,21.45
2022-08-05T03:48:00.678Z,21.50
2022-08-05T03:49:02.424Z,21.52
2022-08-05T03:50:05.381Z,21.55
2022-08-05T03:52:37.938Z,21.57
2022-08-05T03:55:34.272Z,21.63
2022-08-05T03:55:51.363Z,21.56
2022-08-05T03:56:35.681Z,21.60
2022-08-05T03:57:41.865Z,21.69
2022-08-05T03:58:46.044Z,21.77
2022-08-05T03:59:54.780Z,21.84
2022-08-05T04:00:57.333Z,21.92
2022-08-05T04:02:01.661Z,22.01
2022-08-05T04:03:03.429Z,22.10
2022-08-05T04:04:09.653Z,22.16
2022-08-05T04:05:12.217Z,22.25
2022-08-05T04:06:13.830Z,22.33
2022-08-05T04:07:15.703Z,22.40
2022-08-05T04:08:34.882Z,22.47
2022-08-05T04:09:38.497Z,22.49
2022-08-05T04:10:55.026Z,22.57
2022-08-05T04:11:57.098Z,22.61
2022-08-05T04:12:59.657Z,22.64
2022-08-05T04:14:01.358Z,22.69
2022-08-05T04:15:03.517Z,22.73
2022-08-05T04:16:06.003Z,22.79
2022-08-05T04:17:08.790Z,22.82
2022-08-05T04:18:20.413Z,22.85
2022-08-05T04:19:23.983Z,22.91
2022-08-05T04:20:25.764Z,22.94
2022-08-05T04:22:08.964Z,22.96
2022-08-05T04:22:49.496Z,22.99
2022-08-05T04:24:05.056Z,23.03
2022-08-05T04:25:09.145Z,23.05
2022-08-05T04:26:13.761Z,23.10
2022-08-05T04:27:15.516Z,23.15
2022-08-05T04:28:17.725Z,23.18
2022-08-05T04:29:19.732Z,23.19
2022-08-05T04:30:21.493Z,23.23
2022-08-05T04:31:23.108Z,23.24
2022-08-05T04:32:31.120Z,23.26
2022-08-05T04:33:54.375Z,23.29
2022-08-05T04:34:57.612Z,23.30
2022-08-05T04:36:16.050Z,23.31
2022-08-05T04:37:21.066Z,23.36
2022-08-05T04:38:43.465Z,23.40
2022-08-05T04:39:53.078Z,23.43
2022-08-05T04:40:57.388Z,23.45
2022-08-05T04:42:00.573Z,23.45
2022-08-05T04:43:05.294Z,23.46
2022-08-05T04:44:09.580Z,23.53
2022-08-05T04:45:11.551Z,23.54
2022-08-05T04:46:28.403Z,23.57
2022-08-05T04:47:30.273Z,23.59
2022-08-05T04:48:40.293Z,23.67
2022-08-05T04:50:01.756Z,23.66
2022-08-05T04:51:11.465Z,23.70
2022-08-05T04:52:13.250Z,23.71
2022-08-05T04:53:16.726Z,23.77
2022-08-05T04:54:19.771Z,23.75
2022-08-05T04:55:49.798Z,23.78
2022-08-05T04:56:43.606Z,23.80
2022-08-05T04:57:47.887Z,23.82
2022-08-05T04:58:53.282Z,23.81
2022-08-05T04:59:54.891Z,23.84
2022-08-05T05:00:56.699Z,23.85
2022-08-05T05:02:35.252Z,23.85
2022-08-05T05:03:20.514Z,23.85
2022-08-05T05:04:22.221Z,23.90
2022-08-05T05:05:28.247Z,23.91
2022-08-05T05:06:35.868Z,23.91
2022-08-05T05:07:45.762Z,23.93
2022-08-05T05:08:54.607Z,23.93
2022-08-05T05:09:57.103Z,23.94
2022-08-05T05:10:59.462Z,23.96
2022-08-05T05:12:03.059Z,23.96
2022-08-05T05:13:04.882Z,24.00
2022-08-05T05:14:06.598Z,24.02
2022-08-05T05:15:11.082Z,24.04
2022-08-05T05:16:12.761Z,24.10
2022-08-05T05:17:22.905Z,24.12
2022-08-05T05:18:28.763Z,24.20
2022-08-05T05:19:36.253Z,24.22
2022-08-05T05:20:38.929Z,24.26
2022-08-05T05:21:41.258Z,24.33
2022-08-05T05:22:44.084Z,24.36
2022-08-05T05:24:04.049Z,24.42
2022-08-05T05:25:16.586Z,24.48
2022-08-05T05:26:19.114Z,24.56
2022-08-05T05:27:21.145Z,24.68
2022-08-05T05:28:23.000Z,24.76
2022-08-05T05:29:40.949Z,24.82
2022-08-05T05:30:49.662Z,24.93
2022-08-05T05:31:51.501Z,24.99
2022-08-05T05:32:54.686Z,25.04
2022-08-05T05:34:02.252Z,25.14
2022-08-05T05:35:04.503Z,25.22
2022-08-05T05:36:07.916Z,25.30
2022-08-05T05:37:15.212Z,25.36
2022-08-05T05:38:22.698Z,25.43
2022-08-05T05:39:34.480Z,25.48
2022-08-05T05:40:37.605Z,25.54
2022-08-05T05:41:40.896Z,25.61
2022-08-05T05:42:43.603Z,25.63
2022-08-05T05:43:57.229Z,25.73
2022-08-05T05:45:03.067Z,25.81
2022-08-05T05:46:05.195Z,25.85
2022-08-05T05:47:13.332Z,25.91
2022-08-05T05:48:27.592Z,25.99
2022-08-05T05:49:29.508Z,26.02
2022-08-05T05:50:31.159Z,26.09
2022-08-05T05:51:49.911Z,26.15
2022-08-05T05:52:52.309Z,26.22
2022-08-05T05:53:59.006Z,26.28
2022-08-05T05:55:07.537Z,26.36
2022-08-05T05:56:15.440Z,26.46
2022-08-05T05:57:42.717Z,26.59
2022-08-05T05:58:49.722Z,26.82
2022-08-05T05:59:52.440Z,26.89
2022-08-05T06:00:54.543Z,27.04
2022-08-05T06:01:57.733Z,27.23
2022-08-05T06:03:01.274Z,27.40
2022-08-05T06:04:03.716Z,27.58
2022-08-05T06:05:14.659Z,27.71
2022-08-05T06:06:18.745Z,27.88
2022-08-05T06:07:24.147Z,28.01
2022-08-05T06:08:44.443Z,28.08
2022-08-05T06:10:01.392Z,28.10
2022-08-05T06:11:07.456Z,28.13
2022-08-05T06:12:09.508Z,28.13
2022-08-05T06:13:11.414Z,28.20
2022-08-05T06:14:13.029Z,28.26
2022-08-05T06:15:24.110Z,28.32
2022-08-05T06:16:30.598Z,28.35
2022-08-05T06:17:53.503Z,28.36
2022-08-05T06:18:55.972Z,28.39
2022-08-05T06:20:01.847Z,28.40
2022-08-05T06:21:04.572Z,28.49
2022-08-05T06:22:09.811Z,28.50
2022-08-05T06:23:11.417Z,28.54
2022-08-05T06:24:14.871Z,28.57
2022-08-05T06:25:24.704Z,28.63
2022-08-05T06:26:38.173Z,28.59
2022-08-05T06:28:12.351Z,28.64
2022-08-05T06:29:03.697Z,28.68
2022-08-05T06:30:23.158Z,28.74
2022-08-05T06:31:30.462Z,28.83
2022-08-05T06:32:33.885Z,28.83
2022-08-05T06:34:07.385Z,28.84
2022-08-05T06:34:58.478Z,28.83
2022-08-05T06:36:07.428Z,28.83
2022-08-05T06:37:11.591Z,28.86
2022-08-05T06:38:14.017Z,28.81
2022-08-05T06:39:17.762Z,28.84
2022-08-05T06:40:28.067Z,28.91
2022-08-05T06:41:34.736Z,28.93
2022-08-05T06:42:42.210Z,28.97
2022-08-05T06:43:57.661Z,28.98
2022-08-05T06:45:05.611Z,28.97
2022-08-05T06:46:10.401Z,29.00
2022-08-05T06:48:11.683Z,29.01
2022-08-05T06:48:53.799Z,29.07
2022-08-05T06:50:02.054Z,29.10
2022-08-05T06:51:09.505Z,29.14
2022-08-05T06:52:37.496Z,29.16
2022-08-05T06:53:33.676Z,29.22
2022-08-05T06:54:41.113Z,29.26
2022-08-05T06:55:42.877Z,29.29
2022-08-05T06:56:54.983Z,29.26
2022-08-05T06:58:20.367Z,29.25
2022-08-05T06:59:38.741Z,29.24
2022-08-05T07:00:43.823Z,29.24
2022-08-05T07:01:46.393Z,29.25
2022-08-05T07:02:54.494Z,29.39
2022-08-05T07:03:56.123Z,29.41
2022-08-05T07:04:57.807Z,29.44
2022-08-05T07:05:59.868Z,29.42
2022-08-05T07:07:01.692Z,29.48
2022-08-05T07:08:03.391Z,29.55
2022-08-05T07:09:05.963Z,29.62
2022-08-05T07:10:08.430Z,29.67
2022-08-05T07:11:15.355Z,29.69
2022-08-05T07:12:55.741Z,29.72
2022-08-05T07:14:20.486Z,29.75
2022-08-05T07:16:01.456Z,29.82
2022-08-05T07:17:57.208Z,29.77
2022-08-05T07:18:30.256Z,29.83
2022-08-05T07:20:23.167Z,29.86
2022-08-05T07:20:53.930Z,29.86
2022-08-05T07:22:00.941Z,29.89
2022-08-05T07:23:02.949Z,29.89
2022-08-05T07:24:11.245Z,29.92
2022-08-05T07:25:55.069Z,29.95
2022-08-05T07:26:34.830Z,30.03
2022-08-05T07:27:58.469Z,30.02
2022-08-05T07:28:59.911Z,30.05
2022-08-05T07:30:27.962Z,30.05
2022-08-05T07:31:41.056Z,30.10
2022-08-05T07:32:44.910Z,30.10
2022-08-05T07:33:54.966Z,30.14
2022-08-05T07:35:01.479Z,30.21
2022-08-05T07:36:24.277Z,30.17
2022-08-05T07:37:29.096Z,30.17
2022-08-05T07:38:43.341Z,30.21
2022-08-05T07:40:03.990Z,30.27
2022-08-05T07:42:07.354Z,30.21
2022-08-05T07:42:36.382Z,30.16
2022-08-05T07:43:38.137Z,30.16
2022-08-05T07:44:39.753Z,30.13
2022-08-05T07:45:57.479Z,30.20
2022-08-05T07:47:00.140Z,30.17
2022-08-05T07:48:02.111Z,30.19
2022-08-05T07:49:06.230Z,30.14
2022-08-05T07:50:09.936Z,30.16
2022-08-05T07:51:23.450Z,30.16
2022-08-05T07:52:35.938Z,30.23
2022-08-05T07:53:50.419Z,30.31
2022-08-05T07:54:52.714Z,30.36
2022-08-05T07:56:06.438Z,30.45
2022-08-05T07:57:55.141Z,30.48
2022-08-05T07:58:57.468Z,30.50
2022-08-05T07:59:59.558Z,30.48
2022-08-05T08:01:01.449Z,30.57
2022-08-05T08:02:16.015Z,30.64
2022-08-05T08:03:18.858Z,30.71
2022-08-05T08:04:37.930Z,30.81
2022-08-05T08:05:47.549Z,30.88
2022-08-05T08:06:51.483Z,30.95
2022-08-05T08:07:53.330Z,31.02
2022-08-05T08:09:01.951Z,31.14
2022-08-05T08:10:04.049Z,31.19
2022-08-05T08:11:08.868Z,31.21
2022-08-05T08:12:30.632Z,31.25
2022-08-05T08:13:43.022Z,31.25
2022-08-05T08:14:51.247Z,31.16
2022-08-05T08:16:34.928Z,31.16
2022-08-05T08:17:20.588Z,31.16
2022-08-05T08:18:23.252Z,31.19
2022-08-05T08:20:43.664Z,31.22
2022-08-05T08:21:02.897Z,31.19
2022-08-05T08:22:05.920Z,31.16
2022-08-05T08:24:00.377Z,31.12
2022-08-05T08:24:37.089Z,31.16
2022-08-05T08:25:59.980Z,31.15
2022-08-05T08:27:03.364Z,31.21
2022-08-05T08:28:17.961Z,31.31
2022-08-05T08:30:04.570Z,31.31
2022-08-05T08:30:47.723Z,31.31
2022-08-05T08:31:52.272Z,31.33
2022-08-05T08:32:53.922Z,31.36
2022-08-05T08:33:56.393Z,31.36
2022-08-05T08:34:58.727Z,31.43
2022-08-05T08:36:29.623Z,31.47
2022-08-05T08:37:28.070Z,31.47
2022-08-05T08:38:32.217Z,31.50
2022-08-05T08:39:38.151Z,31.49
2022-08-05T08:40:51.684Z,31.56
2022-08-05T08:41:59.612Z,31.62
2022-08-05T08:45:21.152Z,31.72
2022-08-05T08:45:22.914Z,31.80
2022-08-05T08:45:46.658Z,31.86
2022-08-05T08:46:49.100Z,31.93
2022-08-05T08:48:10.519Z,31.92
2022-08-05T08:50:03.833Z,31.92
2022-08-05T08:51:03.599Z,31.87
2022-08-05T08:52:13.926Z,31.87
2022-08-05T08:53:16.556Z,31.96
2022-08-05T08:54:18.208Z,32.04
2022-08-05T08:55:32.116Z,32.10
2022-08-05T08:56:47.890Z,32.16
2022-08-05T08:57:58.456Z,32.17
2022-08-05T08:59:07.071Z,32.24
2022-08-05T09:00:19.470Z,32.23
2022-08-05T09:01:21.404Z,32.28
2022-08-05T09:02:26.509Z,32.33
2022-08-05T09:03:28.692Z,32.35
2022-08-05T09:04:57.792Z,32.43
2022-08-05T09:06:09.202Z,32.40
2022-08-05T09:07:19.642Z,32.47
2022-08-05T09:08:30.961Z,32.43
2022-08-05T09:09:35.607Z,32.48
2022-08-05T09:10:43.457Z,32.50
2022-08-05T09:11:53.770Z,32.50
2022-08-05T09:13:04.980Z,32.57
2022-08-05T09:14:54.359Z,32.62
2022-08-05T09:15:28.733Z,32.70
2022-08-05T09:16:32.178Z,32.75
2022-08-05T09:17:42.942Z,32.75
2022-08-05T09:18:48.747Z,32.79
2022-08-05T09:20:01.712Z,32.82
2022-08-05T09:21:05.023Z,32.89
2022-08-05T09:22:22.532Z,32.98
2022-08-05T09:23:37.450Z,33.05
2022-08-05T09:24:57.443Z,33.08
2022-08-05T09:26:09.174Z,33.16
2022-08-05T09:27:11.053Z,33.21
2022-08-05T09:28:32.317Z,33.21
2022-08-05T09:29:47.522Z,33.19
2022-08-05T09:30:57.811Z,33.16
2022-08-05T09:32:45.964Z,33.16
2022-08-05T09:33:34.864Z,33.19
2022-08-05T09:34:50.070Z,33.21
2022-08-05T09:36:16.504Z,33.26
2022-08-05T09:38:17.424Z,33.26
2022-08-05T09:38:55.994Z,33.29
2022-08-05T09:39:58.866Z,33.29
2022-08-05T09:41:08.176Z,33.27
2022-08-05T09:42:11.419Z,33.32
2022-08-05T09:43:41.224Z,33.41
2022-08-05T09:44:44.940Z,33.41
2022-08-05T09:46:06.525Z,33.37
2022-08-05T09:47:16.995Z,33.43
2022-08-05T09:48:28.439Z,33.41
2022-08-05T09:49:40.275Z,33.43
2022-08-05T09:50:54.497Z,33.47
2022-08-05T09:51:56.253Z,33.45
2022-08-05T09:52:57.962Z,33.50
2022-08-05T09:54:00.410Z,33.53
2022-08-05T09:55:58.137Z,33.53
2022-08-05T09:56:33.602Z,33.57
2022-08-05T09:57:45.471Z,33.62
2022-08-05T09:59:09.170Z,33.63
2022-08-05T10:00:14.381Z,33.67
2022-08-05T10:01:31.630Z,33.65
2022-08-05T10:02:44.123Z,33.67
2022-08-05T10:04:04.629Z,33.69
2022-08-05T10:05:18.130Z,33.69
2022-08-05T10:06:22.525Z,33.66
2022-08-05T10:07:59.406Z,33.63
2022-08-05T10:08:50.358Z,33.70
2022-08-05T10:10:14.228Z,33.84
2022-08-05T10:11:17.259Z,33.89
2022-08-05T10:12:33.250Z,33.89
2022-08-05T10:13:47.751Z,33.87
2022-08-05T10:14:50.184Z,33.87
2022-08-05T10:15:58.358Z,33.87
2022-08-05T10:17:37.592Z,33.87
2022-08-05T10:18:35.871Z,33.89
2022-08-05T10:20:03.043Z,33.90
2022-08-05T10:21:06.332Z,33.97
2022-08-05T10:22:15.797Z,33.97
2022-08-05T10:23:55.373Z,34.00
2022-08-05T10:24:55.498Z,34.01
2022-08-05T10:25:58.845Z,34.07
2022-08-05T10:27:01.828Z,34.11
2022-08-05T10:28:09.230Z,34.13
2022-08-05T10:29:14.268Z,34.14
2022-08-05T10:31:20.376Z,34.11
2022-08-05T10:32:52.142Z,34.03
2022-08-05T10:33:14.555Z,33.98
2022-08-05T10:34:17.032Z,34.04
2022-08-05T10:35:20.154Z,34.08
2022-08-05T10:36:38.535Z,34.11
2022-08-05T10:37:44.891Z,34.16
2022-08-05T10:38:47.242Z,34.20
2022-08-05T10:39:59.035Z,34.16
2022-08-05T10:41:46.721Z,34.10
2022-08-05T10:42:51.029Z,34.10
2022-08-05T10:44:01.952Z,34.13
2022-08-05T10:45:20.947Z,34.08
2022-08-05T10:46:50.585Z,34.14
2022-08-05T10:48:30.213Z,34.18
2022-08-05T10:49:17.462Z,34.17
2022-08-05T10:50:36.342Z,34.21
2022-08-05T10:51:48.614Z,34.18
2022-08-05T10:53:01.821Z,34.13
2022-08-05T10:54:23.186Z,34.14
2022-08-05T10:55:25.304Z,34.17
2022-08-05T10:56:28.324Z,34.21
2022-08-05T10:57:32.021Z,34.16
2022-08-05T10:58:48.830Z,34.20
2022-08-05T11:00:18.741Z,34.23
2022-08-05T11:01:54.883Z,34.24
2022-08-05T11:03:24.551Z,34.28
2022-08-05T11:04:27.731Z,34.24
2022-08-05T11:05:33.164Z,34.16
2022-08-05T11:06:36.295Z,34.07
2022-08-05T11:08:01.710Z,33.97
2022-08-05T11:09:18.756Z,34.04
2022-08-05T11:10:37.063Z,34.06
2022-08-05T11:11:44.356Z,34.11
2022-08-05T11:12:55.587Z,34.16
2022-08-05T11:13:58.235Z,34.21
2022-08-05T11:15:19.277Z,34.28
2022-08-05T11:16:23.133Z,34.27
2022-08-05T11:17:57.922Z,34.25
2022-08-05T11:20:10.938Z,34.27
2022-08-05T11:20:48.447Z,34.29
2022-08-05T11:21:50.087Z,34.38
2022-08-05T11:22:54.433Z,34.45
2022-08-05T11:24:30.677Z,34.52
2022-08-05T11:26:04.555Z,34.59
2022-08-05T11:27:29.562Z,34.59
2022-08-05T11:28:54.638Z,34.64
2022-08-05T11:29:59.749Z,34.64
2022-08-05T11:31:06.514Z,34.59
2022-08-05T11:32:29.173Z,34.55
2022-08-05T11:33:46.111Z,34.54
2022-08-05T11:34:51.709Z,34.49
2022-08-05T11:36:08.384Z,34.57
2022-08-05T11:38:36.952Z,34.62
2022-08-05T11:38:45.823Z,34.69
2022-08-05T11:40:00.236Z,34.69
2022-08-05T11:41:57.877Z,34.67
2022-08-05T11:42:40.860Z,34.67
2022-08-05T11:44:04.870Z,34.67
2022-08-05T11:45:22.982Z,34.68
2022-08-05T11:47:10.181Z,34.68
2022-08-05T11:48:11.585Z,34.62
2022-08-05T11:49:13.959Z,34.61
2022-08-05T11:50:16.458Z,34.52
2022-08-05T11:51:44.346Z,34.52
2022-08-05T11:52:39.669Z,34.51
2022-08-05T11:53:46.940Z,34.57
2022-08-05T11:54:54.753Z,34.68
2022-08-05T11:55:59.362Z,34.79
2022-08-05T11:57:02.267Z,34.84
2022-08-05T11:58:11.999Z,34.86
2022-08-05T11:59:24.242Z,34.88
2022-08-05T12:00:30.363Z,34.78
2022-08-05T12:01:32.204Z,34.82
2022-08-05T12:02:36.257Z,34.81
2022-08-05T12:03:55.735Z,34.74
2022-08-05T12:05:00.153Z,34.68
2022-08-05T12:06:06.216Z,34.61
2022-08-05T12:07:12.882Z,34.59
2022-08-05T12:08:18.116Z,34.52
2022-08-05T12:09:52.802Z,34.52
2022-08-05T12:10:48.695Z,34.55
2022-08-05T12:11:50.767Z,34.61
2022-08-05T12:12:59.513Z,34.68
2022-08-05T12:14:06.907Z,34.74
2022-08-05T12:15:18.541Z,34.79
2022-08-05T12:16:20.378Z,34.81
2022-08-05T12:18:00.600Z,34.81
2022-08-05T12:18:53.040Z,34.79
2022-08-05T12:20:25.960Z,34.77
2022-08-05T12:21:18.900Z,34.79
2022-08-05T12:22:27.024Z,34.82
2022-08-05T12:23:28.863Z,34.88
2022-08-05T12:24:31.380Z,34.88
2022-08-05T12:25:51.318Z,34.84
2022-08-05T12:26:53.725Z,34.84
2022-08-05T12:27:55.348Z,34.84
2022-08-05T12:28:57.728Z,34.84
2022-08-05T12:30:03.305Z,34.64
2022-08-05T12:31:05.340Z,34.69
2022-08-05T12:32:07.613Z,34.75
2022-08-05T12:33:27.210Z,34.79
2022-08-05T12:34:35.738Z,34.79
2022-08-05T12:35:39.880Z,34.82
2022-08-05T12:36:44.931Z,34.88
2022-08-05T12:37:47.931Z,34.89
2022-08-05T12:38:49.950Z,34.88
2022-08-05T12:39:53.897Z,34.88
2022-08-05T12:40:56.802Z,34.81
2022-08-05T12:41:59.727Z,34.85
2022-08-05T12:43:01.360Z,34.81
2022-08-05T12:44:11.473Z,34.81
2022-08-05T12:45:15.751Z,34.79
2022-08-05T12:46:29.381Z,34.81
2022-08-05T12:47:31.947Z,34.78
2022-08-05T12:48:39.967Z,34.78
2022-08-05T12:50:03.937Z,34.81
2022-08-05T12:52:10.511Z,34.79
2022-08-05T12:52:38.641Z,34.79
2022-08-05T12:53:44.502Z,34.75
2022-08-05T12:54:57.730Z,34.77
2022-08-05T12:56:00.706Z,34.72
2022-08-05T12:57:04.800Z,34.67
2022-08-05T12:58:52.493Z,34.59
2022-08-05T13:01:58.061Z,34.55
2022-08-05T13:02:02.286Z,34.55
2022-08-05T13:02:40.036Z,34.58
2022-08-05T13:03:43.211Z,34.65
2022-08-05T13:04:54.432Z,34.67
2022-08-05T13:05:56.421Z,34.72
2022-08-05T13:06:58.993Z,34.77
2022-08-05T13:08:01.818Z,34.84
2022-08-05T13:09:12.540Z,34.89
2022-08-05T13:10:19.733Z,34.91
2022-08-05T13:12:03.124Z,34.94
2022-08-05T13:12:51.146Z,34.94
2022-08-05T13:14:06.742Z,34.98
2022-08-05T13:15:16.414Z,35.00
2022-08-05T13:16:20.304Z,35.05
2022-08-05T13:17:31.660Z,35.02
2022-08-05T13:18:51.307Z,35.08
2022-08-05T13:20:00.913Z,35.13
2022-08-05T13:21:02.675Z,35.20
2022-08-05T13:22:05.703Z,35.25
2022-08-05T13:23:07.626Z,35.30
2022-08-05T13:24:09.387Z,35.33
2022-08-05T13:25:19.303Z,35.32
2022-08-05T13:26:29.867Z,35.33
2022-08-05T13:27:51.887Z,35.36
2022-08-05T13:28:54.225Z,35.33
2022-08-05T13:30:31.404Z,35.35
2022-08-05T13:31:17.513Z,35.32
2022-08-05T13:32:39.430Z,35.32
2022-08-05T13:34:23.559Z,35.28
2022-08-05T13:35:06.228Z,35.25
2022-08-05T13:36:09.247Z,35.18
2022-08-05T13:37:11.189Z,35.19
2022-08-05T13:38:28.260Z,35.16
2022-08-05T13:40:13.439Z,35.15
2022-08-05T13:40:54.747Z,35.18
2022-08-05T13:41:56.547Z,35.19
2022-08-05T13:42:58.607Z,35.19
2022-08-05T13:44:00.401Z,35.15
2022-08-05T13:45:02.169Z,35.15
2022-08-05T13:46:03.782Z,35.13
2022-08-05T13:47:08.361Z,35.13
2022-08-05T13:48:58.774Z,35.13
2022-08-05T13:49:32.196Z,35.19
2022-08-05T13:50:37.055Z,35.25
2022-08-05T13:51:40.888Z,35.20
2022-08-05T13:52:42.943Z,35.20
2022-08-05T13:53:47.875Z,35.18
2022-08-05T13:54:53.392Z,35.19
2022-08-05T13:56:00.241Z,35.18
2022-08-05T13:57:03.862Z,35.18
2022-08-05T13:58:08.010Z,35.18
2022-08-05T13:59:19.772Z,35.25
2022-08-05T14:00:27.574Z,35.23
2022-08-05T14:01:44.366Z,35.23
2022-08-05T14:02:51.252Z,35.25
2022-08-05T14:04:11.457Z,35.22
2022-08-05T14:05:19.346Z,35.25
2022-08-05T14:06:31.310Z,35.28
2022-08-05T14:08:00.111Z,35.26
2022-08-05T14:08:56.151Z,35.23
2022-08-05T14:10:01.455Z,35.25
2022-08-05T14:11:20.413Z,35.22
2022-08-05T14:12:32.606Z,35.25
2022-08-05T14:13:34.617Z,35.25
2022-08-05T14:14:36.244Z,35.26
2022-08-05T14:16:07.008Z,35.25
2022-08-05T14:16:59.996Z,35.28
2022-08-05T14:18:02.487Z,35.30
2022-08-05T14:19:05.507Z,35.32
2022-08-05T14:20:07.934Z,35.32
2022-08-05T14:22:08.682Z,35.32
2022-08-05T14:22:34.434Z,35.28
2022-08-05T14:23:37.625Z,35.26
2022-08-05T14:24:40.156Z,35.05
2022-08-05T14:25:44.998Z,35.05
2022-08-05T14:27:01.982Z,35.03
2022-08-05T14:28:08.719Z,35.03
2022-08-05T14:29:24.397Z,35.06
2022-08-05T14:30:28.110Z,35.09
2022-08-05T14:31:54.333Z,35.10
2022-08-05T14:32:52.352Z,35.10
2022-08-05T14:33:59.422Z,35.12
2022-08-05T14:35:02.025Z,35.09
2022-08-05T14:36:04.374Z,35.06
2022-08-05T14:37:05.993Z,35.10
2022-08-05T14:38:07.617Z,35.08
2022-08-05T14:39:29.306Z,35.06
2022-08-05T14:40:30.983Z,35.02
2022-08-05T14:41:32.995Z,35.06
2022-08-05T14:42:35.001Z,35.09
2022-08-05T14:44:02.134Z,35.05
2022-08-05T14:45:01.282Z,35.06
2022-08-05T14:46:02.923Z,35.08
2022-08-05T14:47:04.717Z,35.06
2022-08-05T14:48:10.511Z,35.02
2022-08-05T14:49:58.493Z,34.98
2022-08-05T14:50:53.787Z,34.98
2022-08-05T14:51:55.943Z,34.98
2022-08-05T14:52:59.586Z,34.96
2022-08-05T14:54:27.464Z,34.96
2022-08-05T14:55:24.542Z,34.94
2022-08-05T14:56:26.286Z,34.91
2022-08-05T14:57:34.111Z,34.92
2022-08-05T14:58:53.150Z,34.92
2022-08-05T14:59:54.966Z,34.92
2022-08-05T15:01:00.266Z,34.85